Terminal Aerodrome Forecast
Issued by NWS Boston, MA

Home | Current Version | Previous Version | Text Only | Print | Product List | Glossary On
Versions: 1 2 3 4 5 6 7 8 9 10 11 12 13 14 15 16 17 18 19 20 21 22 23 24 25 26 27 28 29 30 31 32 33 34 35 36 37 38 39
000
FTUS41 KBOX 280926 AAB
TAFBDL
TAF AMD
KBDL 280926Z 2809/2912 16004KT P6SM SCT120 BKN250
     FM281800 22007KT P6SM BKN250
     FM282000 21008KT P6SM VCTS SCT250CB
     FM282100 21008KT P6SM VCSH SCT250
     FM290100 20006KT P6SM SCT200
     FM290600 17004KT P6SM SCT045
     FM290900 00000KT P6SM SCT100
     FM291000 00000KT P6SM BKN100=

USA.gov is the U.S. government's official web portal to all federal, state and local government web resources and services.